Stratton, Nebraska
Current Conditions -  °F | °C
As of 4:53 AM on Sunday 23 Nov 2014 (Local Time) from KIML Reporting Station
Clear Clear  
Wind Chill: 34°   Ceiling: Unl
Heat Index: 43°   Visibility: 10mi
Dew Point: 25°   Wind: 20mph
Humidity: 49%   Direction: 340°NNW
Pressure: 29.58"   Gusts: 28mph
Location:  40.15°N, 101.23°W
Report Text: KIML 231053Z AUTO 34017G24KT 10SM CLR 06/M04 A2958 RMK AO2 PK WND 33026/1000 SLP011 T00611039
Loading
Personal Weather Stations






























Interactive Weather Map New forecast layout! Learn more

10-Day Weather Forecast

Advertisements
Track Severe Weather on mobile